sensor_id;sensor_type;location;lat;lon;timestamp;pressure;altitude;pressure_sealevel;temperature;humidity
73518;BME280;61766;60.318;25.044;2022-09-01T00:00:44;101609.56;;;12.61;34.70
73518;BME280;61766;60.318;25.044;2022-09-01T00:03:07;101612.54;;;12.28;34.90
73518;BME280;61766;60.318;25.044;2022-09-01T00:05:32;101607.47;;;12.24;34.86
73518;BME280;61766;60.318;25.044;2022-09-01T00:07:57;101606.89;;;12.45;34.67
73518;BME280;61766;60.318;25.044;2022-09-01T00:10:22;101608.82;;;12.33;34.88
73518;BME280;61766;60.318;25.044;2022-09-01T00:12:47;101605.90;;;12.74;34.56
73518;BME280;61766;60.318;25.044;2022-09-01T00:15:12;101608.49;;;12.37;34.72
73518;BME280;61766;60.318;25.044;2022-09-01T00:17:37;101608.32;;;12.03;34.89
73518;BME280;61766;60.318;25.044;2022-09-01T00:20:04;101611.19;;;12.52;34.59
73518;BME280;61766;60.318;25.044;2022-09-01T00:22:27;101610.34;;;12.35;35.05
73518;BME280;61766;60.318;25.044;2022-09-01T00:24:53;101611.30;;;12.28;34.92
73518;BME280;61766;60.318;25.044;2022-09-01T00:27:17;101608.20;;;12.02;35.40
73518;BME280;61766;60.318;25.044;2022-09-01T00:29:42;101606.04;;;12.06;35.32
73518;BME280;61766;60.318;25.044;2022-09-01T00:32:07;101607.45;;;12.13;35.31
73518;BME280;61766;60.318;25.044;2022-09-01T00:34:33;101605.57;;;12.09;35.35
73518;BME280;61766;60.318;25.044;2022-09-01T00:36:58;101610.14;;;11.92;35.59
73518;BME280;61766;60.318;25.044;2022-09-01T00:39:23;101610.98;;;11.64;36.31
73518;BME280;61766;60.318;25.044;2022-09-01T00:41:48;101606.91;;;11.66;36.76
73518;BME280;61766;60.318;25.044;2022-09-01T00:44:15;101607.71;;;11.67;36.49
73518;BME280;61766;60.318;25.044;2022-09-01T00:46:40;101610.73;;;11.87;36.47
73518;BME280;61766;60.318;25.044;2022-09-01T00:49:07;101611.15;;;11.83;36.28
73518;BME280;61766;60.318;25.044;2022-09-01T00:51:29;101610.82;;;11.95;36.13
73518;BME280;61766;60.318;25.044;2022-09-01T00:53:54;101608.36;;;11.96;35.81
73518;BME280;61766;60.318;25.044;2022-09-01T00:56:19;101603.21;;;11.83;35.97
73518;BME280;61766;60.318;25.044;2022-09-01T00:58:44;101606.58;;;11.36;36.98
73518;BME280;61766;60.318;25.044;2022-09-01T01:01:10;101603.24;;;11.76;36.82
73518;BME280;61766;60.318;25.044;2022-09-01T01:03:34;101608.23;;;11.77;36.56
73518;BME280;61766;60.318;25.044;2022-09-01T01:06:01;101607.79;;;12.10;36.37
73518;BME280;61766;60.318;25.044;2022-09-01T01:08:27;101610.37;;;12.18;36.24
73518;BME280;61766;60.318;25.044;2022-09-01T01:10:49;101607.88;;;11.78;36.65
73518;BME280;61766;60.318;25.044;2022-09-01T01:13:15;101608.75;;;11.68;36.38
73518;BME280;61766;60.318;25.044;2022-09-01T01:15:40;101605.38;;;12.05;36.14
73518;BME280;61766;60.318;25.044;2022-09-01T01:18:04;101606.51;;;12.05;36.50
73518;BME280;61766;60.318;25.044;2022-09-01T01:20:31;101602.31;;;11.73;36.95
73518;BME280;61766;60.318;25.044;2022-09-01T01:23:01;101604.62;;;11.81;36.61
73518;BME280;61766;60.318;25.044;2022-09-01T01:25:20;101608.00;;;11.78;36.69
73518;BME280;61766;60.318;25.044;2022-09-01T01:27:44;101604.14;;;11.94;36.72
73518;BME280;61766;60.318;25.044;2022-09-01T01:30:11;101601.42;;;12.02;36.65
73518;BME280;61766;60.318;25.044;2022-09-01T01:32:35;101598.87;;;12.02;36.72
73518;BME280;61766;60.318;25.044;2022-09-01T01:34:59;101594.09;;;11.94;36.63
73518;BME280;61766;60.318;25.044;2022-09-01T01:37:25;101593.96;;;12.11;36.37
73518;BME280;61766;60.318;25.044;2022-09-01T01:39:50;101597.58;;;11.68;36.49
73518;BME280;61766;60.318;25.044;2022-09-01T01:42:15;101593.61;;;12.02;36.09
73518;BME280;61766;60.318;25.044;2022-09-01T01:44:40;101595.80;;;12.05;36.16
73518;BME280;61766;60.318;25.044;2022-09-01T01:47:07;101594.00;;;11.91;36.36
73518;BME280;61766;60.318;25.044;2022-09-01T01:49:31;101595.44;;;12.05;36.19
73518;BME280;61766;60.318;25.044;2022-09-01T01:51:55;101594.59;;;11.60;36.88
73518;BME280;61766;60.318;25.044;2022-09-01T01:54:20;101592.07;;;11.27;37.34
73518;BME280;61766;60.318;25.044;2022-09-01T01:56:46;101586.66;;;11.26;37.44
73518;BME280;61766;60.318;25.044;2022-09-01T01:59:10;101586.89;;;11.60;37.20
73518;BME280;61766;60.318;25.044;2022-09-01T02:01:35;101587.48;;;11.86;37.18
73518;BME280;61766;60.318;25.044;2022-09-01T02:04:01;101589.45;;;11.85;37.26
73518;BME280;61766;60.318;25.044;2022-09-01T02:06:27;101589.13;;;11.84;37.32
73518;BME280;61766;60.318;25.044;2022-09-01T02:08:52;101591.18;;;12.10;37.05
73518;BME280;61766;60.318;25.044;2022-09-01T02:11:16;101595.98;;;11.64;37.79
73518;BME280;61766;60.318;25.044;2022-09-01T02:13:41;101594.66;;;11.61;37.74
73518;BME280;61766;60.318;25.044;2022-09-01T02:16:07;101593.77;;;11.01;38.03
73518;BME280;61766;60.318;25.044;2022-09-01T02:18:33;101596.01;;;11.49;38.28
73518;BME280;61766;60.318;25.044;2022-09-01T02:20:56;101599.70;;;11.10;38.62
73518;BME280;61766;60.318;25.044;2022-09-01T02:23:22;101599.92;;;11.31;38.46
73518;BME280;61766;60.318;25.044;2022-09-01T02:25:46;101596.77;;;11.28;38.74
73518;BME280;61766;60.318;25.044;2022-09-01T02:28:13;101603.28;;;11.15;39.08
73518;BME280;61766;60.318;25.044;2022-09-01T02:30:37;101597.82;;;11.24;38.92
73518;BME280;61766;60.318;25.044;2022-09-01T02:33:01;101597.32;;;11.39;38.82
73518;BME280;61766;60.318;25.044;2022-09-01T02:35:27;101600.22;;;11.32;38.57
73518;BME280;61766;60.318;25.044;2022-09-01T02:37:52;101597.43;;;11.35;38.39
73518;BME280;61766;60.318;25.044;2022-09-01T02:40:17;101598.07;;;11.47;38.44
73518;BME280;61766;60.318;25.044;2022-09-01T02:42:42;101595.61;;;11.60;38.25
73518;BME280;61766;60.318;25.044;2022-09-01T02:45:08;101593.14;;;11.19;38.43
73518;BME280;61766;60.318;25.044;2022-09-01T02:47:32;101593.46;;;11.75;37.97
73518;BME280;61766;60.318;25.044;2022-09-01T02:49:57;101591.57;;;11.66;38.15
73518;BME280;61766;60.318;25.044;2022-09-01T02:52:22;101589.64;;;11.62;38.22
73518;BME280;61766;60.318;25.044;2022-09-01T02:54:48;101593.08;;;11.47;38.18
73518;BME280;61766;60.318;25.044;2022-09-01T02:57:12;101593.88;;;11.61;38.24
73518;BME280;61766;60.318;25.044;2022-09-01T02:59:38;101589.41;;;11.38;38.49
73518;BME280;61766;60.318;25.044;2022-09-01T03:02:04;101594.28;;;11.16;38.96
73518;BME280;61766;60.318;25.044;2022-09-01T03:04:29;101593.32;;;11.20;38.98
73518;BME280;61766;60.318;25.044;2022-09-01T03:06:53;101596.56;;;10.88;39.40
73518;BME280;61766;60.318;25.044;2022-09-01T03:09:19;101595.37;;;10.99;39.26
73518;BME280;61766;60.318;25.044;2022-09-01T03:11:46;101589.84;;;11.33;38.81
73518;BME280;61766;60.318;25.044;2022-09-01T03:14:09;101595.22;;;11.33;38.76
73518;BME280;61766;60.318;25.044;2022-09-01T03:16:40;101597.80;;;11.23;38.94
73518;BME280;61766;60.318;25.044;2022-09-01T03:18:59;101592.67;;;11.41;39.02
73518;BME280;61766;60.318;25.044;2022-09-01T03:21:25;101597.10;;;11.15;39.18
73518;BME280;61766;60.318;25.044;2022-09-01T03:23:50;101596.18;;;11.36;38.73
73518;BME280;61766;60.318;25.044;2022-09-01T03:26:16;101599.39;;;10.97;39.73
73518;BME280;61766;60.318;25.044;2022-09-01T03:28:39;101593.04;;;11.11;39.17
73518;BME280;61766;60.318;25.044;2022-09-01T03:31:05;101596.82;;;11.34;38.80
73518;BME280;61766;60.318;25.044;2022-09-01T03:33:30;101595.95;;;11.38;38.43
73518;BME280;61766;60.318;25.044;2022-09-01T03:35:56;101596.19;;;11.51;38.55
73518;BME280;61766;60.318;25.044;2022-09-01T03:38:22;101598.15;;;11.47;38.58
73518;BME280;61766;60.318;25.044;2022-09-01T03:40:48;101604.78;;;11.29;38.13
73518;BME280;61766;60.318;25.044;2022-09-01T03:43:11;101599.80;;;11.48;38.50
73518;BME280;61766;60.318;25.044;2022-09-01T03:45:36;101595.06;;;11.63;38.41
73518;BME280;61766;60.318;25.044;2022-09-01T03:48:02;101602.05;;;11.65;37.89
73518;BME280;61766;60.318;25.044;2022-09-01T03:50:26;101593.04;;;11.66;38.51
73518;BME280;61766;60.318;25.044;2022-09-01T03:52:53;101591.88;;;11.45;38.49
73518;BME280;61766;60.318;25.044;2022-09-01T03:55:19;101590.56;;;11.29;38.85
73518;BME280;61766;60.318;25.044;2022-09-01T03:57:42;101594.58;;;11.02;39.13
73518;BME280;61766;60.318;25.044;2022-09-01T04:00:08;101593.51;;;11.11;39.12
73518;BME280;61766;60.318;25.044;2022-09-01T04:02:32;101597.48;;;11.21;39.62
73518;BME280;61766;60.318;25.044;2022-09-01T04:04:57;101598.92;;;10.75;39.95
73518;BME280;61766;60.318;25.044;2022-09-01T04:07:22;101599.24;;;10.76;39.68
73518;BME280;61766;60.318;25.044;2022-09-01T04:09:47;101602.78;;;10.97;39.68
73518;BME280;61766;60.318;25.044;2022-09-01T04:12:12;101603.85;;;11.01;39.24
73518;BME280;61766;60.318;25.044;2022-09-01T04:14:37;101602.62;;;11.11;39.07
73518;BME280;61766;60.318;25.044;2022-09-01T04:17:02;101601.97;;;11.15;39.33
73518;BME280;61766;60.318;25.044;2022-09-01T04:19:27;101604.52;;;11.04;38.99
73518;BME280;61766;60.318;25.044;2022-09-01T04:21:55;101610.97;;;10.88;38.99
73518;BME280;61766;60.318;25.044;2022-09-01T04:24:18;101609.32;;;10.97;39.60
73518;BME280;61766;60.318;25.044;2022-09-01T04:26:44;101611.50;;;11.24;39.31
73518;BME280;61766;60.318;25.044;2022-09-01T04:29:08;101616.70;;;11.20;38.91
73518;BME280;61766;60.318;25.044;2022-09-01T04:31:35;101617.19;;;11.33;38.77
73518;BME280;61766;60.318;25.044;2022-09-01T04:33:59;101617.97;;;11.00;39.22
73518;BME280;61766;60.318;25.044;2022-09-01T04:36:25;101615.27;;;11.11;39.52
73518;BME280;61766;60.318;25.044;2022-09-01T04:38:51;101615.80;;;10.94;40.13
73518;BME280;61766;60.318;25.044;2022-09-01T04:41:14;101615.83;;;10.58;39.94
73518;BME280;61766;60.318;25.044;2022-09-01T04:43:39;101616.99;;;10.79;39.66
73518;BME280;61766;60.318;25.044;2022-09-01T04:46:04;101614.27;;;11.08;39.95
73518;BME280;61766;60.318;25.044;2022-09-01T04:48:29;101613.77;;;10.90;39.96
73518;BME280;61766;60.318;25.044;2022-09-01T04:50:54;101613.51;;;11.05;40.03
73518;BME280;61766;60.318;25.044;2022-09-01T04:53:19;101612.84;;;10.75;39.80
73518;BME280;61766;60.318;25.044;2022-09-01T04:55:45;101613.08;;;10.98;39.95
73518;BME280;61766;60.318;25.044;2022-09-01T04:58:11;101614.70;;;11.16;39.21
73518;BME280;61766;60.318;25.044;2022-09-01T05:00:35;101608.58;;;11.20;39.17
73518;BME280;61766;60.318;25.044;2022-09-01T05:03:02;101608.28;;;11.19;39.12
73518;BME280;61766;60.318;25.044;2022-09-01T05:05:25;101609.65;;;10.43;40.27
73518;BME280;61766;60.318;25.044;2022-09-01T05:07:50;101610.79;;;11.15;40.09
73518;BME280;61766;60.318;25.044;2022-09-01T05:10:15;101616.01;;;11.11;40.52
73518;BME280;61766;60.318;25.044;2022-09-01T05:12:40;101612.72;;;11.32;39.60
73518;BME280;61766;60.318;25.044;2022-09-01T05:15:06;101613.02;;;11.10;39.98
73518;BME280;61766;60.318;25.044;2022-09-01T05:17:31;101610.80;;;11.35;39.73
73518;BME280;61766;60.318;25.044;2022-09-01T05:19:57;101608.72;;;11.31;39.47
73518;BME280;61766;60.318;25.044;2022-09-01T05:22:22;101605.04;;;11.66;39.15
73518;BME280;61766;60.318;25.044;2022-09-01T05:24:47;101608.32;;;11.52;39.35
73518;BME280;61766;60.318;25.044;2022-09-01T05:27:12;101602.42;;;11.50;40.01
73518;BME280;61766;60.318;25.044;2022-09-01T05:29:37;101599.79;;;11.17;40.56
73518;BME280;61766;60.318;25.044;2022-09-01T05:32:03;101597.71;;;11.51;40.28
73518;BME280;61766;60.318;25.044;2022-09-01T05:34:28;101597.68;;;11.38;39.94
73518;BME280;61766;60.318;25.044;2022-09-01T05:36:55;101604.53;;;11.63;39.13
73518;BME280;61766;60.318;25.044;2022-09-01T05:39:19;101602.01;;;11.27;40.12
73518;BME280;61766;60.318;25.044;2022-09-01T05:41:43;101606.51;;;11.94;39.17
73518;BME280;61766;60.318;25.044;2022-09-01T05:44:09;101599.01;;;12.23;38.65
73518;BME280;61766;60.318;25.044;2022-09-01T05:46:35;101602.38;;;11.72;38.88
73518;BME280;61766;60.318;25.044;2022-09-01T05:48:59;101597.62;;;11.72;38.93
73518;BME280;61766;60.318;25.044;2022-09-01T05:51:26;101596.79;;;12.40;38.38
73518;BME280;61766;60.318;25.044;2022-09-01T05:53:50;101599.58;;;12.33;38.06
73518;BME280;61766;60.318;25.044;2022-09-01T05:56:14;101596.71;;;12.55;37.56
73518;BME280;61766;60.318;25.044;2022-09-01T05:58:40;101597.05;;;12.59;38.25
73518;BME280;61766;60.318;25.044;2022-09-01T06:01:05;101595.57;;;12.55;37.73
73518;BME280;61766;60.318;25.044;2022-09-01T06:03:29;101595.90;;;12.36;38.43
73518;BME280;61766;60.318;25.044;2022-09-01T06:05:55;101597.93;;;12.55;37.78
73518;BME280;61766;60.318;25.044;2022-09-01T06:08:21;101587.09;;;12.74;37.46
73518;BME280;61766;60.318;25.044;2022-09-01T06:10:44;101590.12;;;13.26;36.84
73518;BME280;61766;60.318;25.044;2022-09-01T06:13:10;101598.26;;;13.19;36.58
73518;BME280;61766;60.318;25.044;2022-09-01T06:15:36;101588.23;;;13.29;36.26
73518;BME280;61766;60.318;25.044;2022-09-01T06:18:00;101587.48;;;13.51;36.37
73518;BME280;61766;60.318;25.044;2022-09-01T06:20:25;101586.99;;;13.35;36.33
73518;BME280;61766;60.318;25.044;2022-09-01T06:22:50;101588.44;;;14.34;35.24
73518;BME280;61766;60.318;25.044;2022-09-01T06:25:16;101584.02;;;13.82;34.89
73518;BME280;61766;60.318;25.044;2022-09-01T06:27:42;101590.26;;;14.17;34.82
73518;BME280;61766;60.318;25.044;2022-09-01T06:30:09;101578.07;;;14.77;34.50
73518;BME280;61766;60.318;25.044;2022-09-01T06:32:34;101585.68;;;15.31;33.73
73518;BME280;61766;60.318;25.044;2022-09-01T06:35:00;101579.41;;;15.21;33.11
73518;BME280;61766;60.318;25.044;2022-09-01T06:37:26;101584.29;;;15.39;32.48
73518;BME280;61766;60.318;25.044;2022-09-01T06:39:51;101576.27;;;15.45;32.51
73518;BME280;61766;60.318;25.044;2022-09-01T06:42:17;101580.98;;;15.86;32.19
73518;BME280;61766;60.318;25.044;2022-09-01T06:44:43;101575.71;;;15.58;31.59
73518;BME280;61766;60.318;25.044;2022-09-01T06:47:09;101578.79;;;16.40;31.36
73518;BME280;61766;60.318;25.044;2022-09-01T06:49:35;101582.66;;;16.01;32.23
73518;BME280;61766;60.318;25.044;2022-09-01T06:52:03;101566.94;;;16.05;31.52
73518;BME280;61766;60.318;25.044;2022-09-01T06:54:26;101579.81;;;16.14;31.24
73518;BME280;61766;60.318;25.044;2022-09-01T06:56:52;101571.26;;;15.55;31.62
73518;BME280;61766;60.318;25.044;2022-09-01T06:59:19;101573.98;;;15.81;31.63
73518;BME280;61766;60.318;25.044;2022-09-01T07:01:44;101570.07;;;16.15;30.80
73518;BME280;61766;60.318;25.044;2022-09-01T07:04:09;101572.24;;;16.37;31.00
73518;BME280;61766;60.318;25.044;2022-09-01T07:06:39;101569.33;;;16.73;30.24
73518;BME280;61766;60.318;25.044;2022-09-01T07:09:01;101568.13;;;16.70;30.77
73518;BME280;61766;60.318;25.044;2022-09-01T07:11:29;101568.14;;;16.46;30.75
73518;BME280;61766;60.318;25.044;2022-09-01T07:13:55;101574.84;;;16.61;30.45
73518;BME280;61766;60.318;25.044;2022-09-01T07:16:20;101580.75;;;16.72;30.70
73518;BME280;61766;60.318;25.044;2022-09-01T07:18:45;101575.07;;;17.07;30.20
73518;BME280;61766;60.318;25.044;2022-09-01T07:21:10;101571.17;;;17.04;29.55
73518;BME280;61766;60.318;25.044;2022-09-01T07:23:36;101574.17;;;17.49;29.17
73518;BME280;61766;60.318;25.044;2022-09-01T07:26:05;101572.79;;;17.21;29.29
73518;BME280;61766;60.318;25.044;2022-09-01T07:28:28;101584.74;;;17.68;28.28
73518;BME280;61766;60.318;25.044;2022-09-01T07:30:54;101581.90;;;17.74;28.11
73518;BME280;61766;60.318;25.044;2022-09-01T07:33:21;101587.39;;;18.55;27.11
73518;BME280;61766;60.318;25.044;2022-09-01T07:35:46;101585.44;;;18.30;27.63
73518;BME280;61766;60.318;25.044;2022-09-01T07:38:11;101579.81;;;17.99;27.76
73518;BME280;61766;60.318;25.044;2022-09-01T07:40:38;101580.38;;;17.16;27.89
73518;BME280;61766;60.318;25.044;2022-09-01T07:43:03;101592.66;;;18.01;27.89
73518;BME280;61766;60.318;25.044;2022-09-01T07:45:28;101590.90;;;17.98;27.37
73518;BME280;61766;60.318;25.044;2022-09-01T07:47:54;101590.42;;;18.33;27.61
73518;BME280;61766;60.318;25.044;2022-09-01T07:50:20;101587.67;;;17.67;26.57
73518;BME280;61766;60.318;25.044;2022-09-01T07:52:45;101599.01;;;18.70;26.58
73518;BME280;61766;60.318;25.044;2022-09-01T07:55:12;101594.69;;;19.36;24.53
73518;BME280;61766;60.318;25.044;2022-09-01T07:57:37;101596.98;;;19.51;24.53
73518;BME280;61766;60.318;25.044;2022-09-01T08:00:04;101590.30;;;19.40;24.35
73518;BME280;61766;60.318;25.044;2022-09-01T08:02:28;101591.21;;;19.45;24.38
73518;BME280;61766;60.318;25.044;2022-09-01T08:04:54;101592.62;;;19.94;23.95
73518;BME280;61766;60.318;25.044;2022-09-01T08:07:20;101592.80;;;19.81;23.99
73518;BME280;61766;60.318;25.044;2022-09-01T08:09:46;101581.93;;;19.94;23.12
73518;BME280;61766;60.318;25.044;2022-09-01T08:12:11;101602.83;;;19.43;24.08
73518;BME280;61766;60.318;25.044;2022-09-01T08:14:37;101598.01;;;19.79;24.09
73518;BME280;61766;60.318;25.044;2022-09-01T08:17:03;101598.77;;;19.27;24.13
73518;BME280;61766;60.318;25.044;2022-09-01T08:19:29;101596.82;;;19.35;23.61
73518;BME280;61766;60.318;25.044;2022-09-01T08:21:54;101598.40;;;19.77;22.92
73518;BME280;61766;60.318;25.044;2022-09-01T08:24:20;101603.37;;;19.69;23.96
73518;BME280;61766;60.318;25.044;2022-09-01T08:26:46;101606.60;;;20.14;23.77
73518;BME280;61766;60.318;25.044;2022-09-01T08:29:11;101602.86;;;20.21;23.09
73518;BME280;61766;60.318;25.044;2022-09-01T08:31:37;101601.00;;;20.71;22.55
73518;BME280;61766;60.318;25.044;2022-09-01T08:34:03;101603.13;;;21.41;22.20
73518;BME280;61766;60.318;25.044;2022-09-01T08:36:29;101606.83;;;21.76;21.20
73518;BME280;61766;60.318;25.044;2022-09-01T08:38:54;101612.73;;;21.80;21.96
73518;BME280;61766;60.318;25.044;2022-09-01T08:41:29;101606.65;;;21.57;21.12
73518;BME280;61766;60.318;25.044;2022-09-01T08:43:55;101604.73;;;21.83;21.27
73518;BME280;61766;60.318;25.044;2022-09-01T08:46:15;101602.06;;;21.62;21.69
73518;BME280;61766;60.318;25.044;2022-09-01T08:48:40;101601.77;;;21.42;22.24
73518;BME280;61766;60.318;25.044;2022-09-01T08:51:11;101608.18;;;21.61;22.14
73518;BME280;61766;60.318;25.044;2022-09-01T08:53:33;101602.46;;;21.54;22.31
73518;BME280;61766;60.318;25.044;2022-09-01T08:55:56;101596.89;;;21.82;22.01
73518;BME280;61766;60.318;25.044;2022-09-01T08:58:20;101599.62;;;22.18;21.32
73518;BME280;61766;60.318;25.044;2022-09-01T09:00:53;101588.04;;;22.08;20.71
73518;BME280;61766;60.318;25.044;2022-09-01T09:03:16;101608.08;;;22.19;20.71
73518;BME280;61766;60.318;25.044;2022-09-01T09:05:48;101597.24;;;21.74;20.20
73518;BME280;61766;60.318;25.044;2022-09-01T09:08:16;101600.66;;;21.88;20.49
73518;BME280;61766;60.318;25.044;2022-09-01T09:10:33;101598.86;;;22.66;20.66
73518;BME280;61766;60.318;25.044;2022-09-01T09:13:03;101600.02;;;22.99;19.41
73518;BME280;61766;60.318;25.044;2022-09-01T09:15:24;101601.05;;;22.41;20.63
73518;BME280;61766;60.318;25.044;2022-09-01T09:17:50;101597.25;;;22.79;20.50
73518;BME280;61766;60.318;25.044;2022-09-01T09:20:11;101601.91;;;21.99;20.88
73518;BME280;61766;60.318;25.044;2022-09-01T09:22:37;101603.65;;;21.74;20.67
73518;BME280;61766;60.318;25.044;2022-09-01T09:25:07;101617.71;;;21.37;21.88
73518;BME280;61766;60.318;25.044;2022-09-01T09:27:31;101601.51;;;20.60;22.26
73518;BME280;61766;60.318;25.044;2022-09-01T09:29:56;101606.25;;;21.15;22.53
73518;BME280;61766;60.318;25.044;2022-09-01T09:32:21;101603.37;;;21.18;21.70
73518;BME280;61766;60.318;25.044;2022-09-01T09:34:47;101596.36;;;20.68;23.34
73518;BME280;61766;60.318;25.044;2022-09-01T09:37:21;101609.25;;;21.57;21.58
73518;BME280;61766;60.318;25.044;2022-09-01T09:39:37;101596.87;;;22.27;21.90
73518;BME280;61766;60.318;25.044;2022-09-01T09:42:06;101595.85;;;21.91;21.71
73518;BME280;61766;60.318;25.044;2022-09-01T09:44:30;101608.37;;;21.93;21.76
73518;BME280;61766;60.318;25.044;2022-09-01T09:46:54;101590.62;;;21.24;20.37
73518;BME280;61766;60.318;25.044;2022-09-01T09:49:22;101600.36;;;20.73;20.92
73518;BME280;61766;60.318;25.044;2022-09-01T09:51:48;101602.20;;;21.26;21.26
73518;BME280;61766;60.318;25.044;2022-09-01T09:54:15;101607.24;;;22.09;20.25
73518;BME280;61766;60.318;25.044;2022-09-01T09:56:37;101607.82;;;21.81;21.60
73518;BME280;61766;60.318;25.044;2022-09-01T10:01:30;101603.52;;;22.45;21.00
73518;BME280;61766;60.318;25.044;2022-09-01T10:03:55;101610.93;;;21.84;20.44
73518;BME280;61766;60.318;25.044;2022-09-01T10:06:30;101612.45;;;21.70;21.08
73518;BME280;61766;60.318;25.044;2022-09-01T10:08:46;101613.82;;;21.59;20.99
73518;BME280;61766;60.318;25.044;2022-09-01T10:11:26;101613.37;;;21.65;21.08
73518;BME280;61766;60.318;25.044;2022-09-01T10:13:37;101615.47;;;21.52;20.68
73518;BME280;61766;60.318;25.044;2022-09-01T10:16:07;101618.87;;;21.46;20.71
73518;BME280;61766;60.318;25.044;2022-09-01T10:18:31;101607.99;;;21.45;20.76
73518;BME280;61766;60.318;25.044;2022-09-01T10:20:57;101614.80;;;21.56;20.97
73518;BME280;61766;60.318;25.044;2022-09-01T10:23:20;101616.10;;;21.15;21.50
73518;BME280;61766;60.318;25.044;2022-09-01T10:25:47;101617.27;;;21.81;21.13
73518;BME280;61766;60.318;25.044;2022-09-01T10:28:15;101616.33;;;21.96;21.13
73518;BME280;61766;60.318;25.044;2022-09-01T10:30:40;101613.71;;;21.17;20.69
73518;BME280;61766;60.318;25.044;2022-09-01T10:33:03;101613.11;;;21.21;20.54
73518;BME280;61766;60.318;25.044;2022-09-01T10:35:30;101618.26;;;21.96;21.01
73518;BME280;61766;60.318;25.044;2022-09-01T10:37:56;101612.71;;;21.62;19.88
73518;BME280;61766;60.318;25.044;2022-09-01T10:40:34;101615.18;;;21.69;19.84
73518;BME280;61766;60.318;25.044;2022-09-01T10:42:47;101615.07;;;22.17;19.83
73518;BME280;61766;60.318;25.044;2022-09-01T10:47:37;101615.89;;;22.52;20.09
73518;BME280;61766;60.318;25.044;2022-09-01T10:50:08;101621.44;;;21.87;19.72
73518;BME280;61766;60.318;25.044;2022-09-01T10:54:58;101622.48;;;21.19;19.69
73518;BME280;61766;60.318;25.044;2022-09-01T10:57:33;101629.19;;;21.37;19.48
73518;BME280;61766;60.318;25.044;2022-09-01T10:59:46;101625.40;;;20.76;20.02
73518;BME280;61766;60.318;25.044;2022-09-01T11:02:13;101622.50;;;20.98;20.80
73518;BME280;61766;60.318;25.044;2022-09-01T11:07:03;101622.05;;;21.75;20.74
73518;BME280;61766;60.318;25.044;2022-09-01T11:09:32;101620.74;;;21.22;20.91
73518;BME280;61766;60.318;25.044;2022-09-01T11:12:08;101625.17;;;20.98;20.49
73518;BME280;61766;60.318;25.044;2022-09-01T11:14:21;101632.60;;;20.85;20.79
73518;BME280;61766;60.318;25.044;2022-09-01T11:19:26;101624.03;;;20.51;21.01
73518;BME280;61766;60.318;25.044;2022-09-01T11:21:37;101635.79;;;20.01;21.16
73518;BME280;61766;60.318;25.044;2022-09-01T11:26:44;101636.85;;;20.61;21.00
73518;BME280;61766;60.318;25.044;2022-09-01T11:28:54;101637.92;;;19.67;22.08
73518;BME280;61766;60.318;25.044;2022-09-01T11:31:29;101638.56;;;20.20;21.48
73518;BME280;61766;60.318;25.044;2022-09-01T11:33:56;101636.37;;;19.98;21.47
73518;BME280;61766;60.318;25.044;2022-09-01T11:36:15;101637.03;;;19.83;22.12
73518;BME280;61766;60.318;25.044;2022-09-01T11:38:44;101637.55;;;19.70;22.10
73518;BME280;61766;60.318;25.044;2022-09-01T11:41:03;101636.22;;;20.10;21.65
73518;BME280;61766;60.318;25.044;2022-09-01T11:43:29;101632.13;;;20.13;22.06
73518;BME280;61766;60.318;25.044;2022-09-01T11:46:03;101633.89;;;20.16;21.54
73518;BME280;61766;60.318;25.044;2022-09-01T11:48:20;101635.33;;;20.24;21.38
73518;BME280;61766;60.318;25.044;2022-09-01T11:50:56;101636.58;;;20.40;21.39
73518;BME280;61766;60.318;25.044;2022-09-01T11:53:14;101632.83;;;20.92;21.65
73518;BME280;61766;60.318;25.044;2022-09-01T11:55:39;101630.12;;;20.76;20.95
73518;BME280;61766;60.318;25.044;2022-09-01T11:58:04;101630.56;;;20.23;20.82
73518;BME280;61766;60.318;25.044;2022-09-01T12:00:32;101621.57;;;20.12;21.58
73518;BME280;61766;60.318;25.044;2022-09-01T12:02:55;101624.69;;;19.98;21.68
73518;BME280;61766;60.318;25.044;2022-09-01T12:05:27;101635.61;;;19.09;21.97
73518;BME280;61766;60.318;25.044;2022-09-01T12:07:47;101635.36;;;19.93;21.95
73518;BME280;61766;60.318;25.044;2022-09-01T12:10:14;101634.87;;;19.56;21.64
73518;BME280;61766;60.318;25.044;2022-09-01T12:12:39;101638.92;;;19.23;22.39
73518;BME280;61766;60.318;25.044;2022-09-01T12:15:07;101644.39;;;18.71;22.77
73518;BME280;61766;60.318;25.044;2022-09-01T12:17:29;101647.12;;;19.02;22.81
73518;BME280;61766;60.318;25.044;2022-09-01T12:19:55;101645.26;;;18.95;23.47
73518;BME280;61766;60.318;25.044;2022-09-01T12:22:22;101638.99;;;19.69;22.15
73518;BME280;61766;60.318;25.044;2022-09-01T12:24:48;101631.09;;;19.82;21.89
73518;BME280;61766;60.318;25.044;2022-09-01T12:27:13;101622.55;;;19.87;21.53
73518;BME280;61766;60.318;25.044;2022-09-01T12:29:39;101628.71;;;19.06;21.65
73518;BME280;61766;60.318;25.044;2022-09-01T12:32:04;101632.78;;;19.44;21.44
73518;BME280;61766;60.318;25.044;2022-09-01T12:34:39;101629.58;;;19.56;21.32
73518;BME280;61766;60.318;25.044;2022-09-01T12:37:05;101623.76;;;19.84;21.30
73518;BME280;61766;60.318;25.044;2022-09-01T12:39:23;101618.33;;;19.79;21.49
73518;BME280;61766;60.318;25.044;2022-09-01T12:42:01;101623.72;;;20.15;21.10
73518;BME280;61766;60.318;25.044;2022-09-01T12:44:26;101623.69;;;19.31;21.13